Main page
METAR-TAF:

METAR-TAF

Airports :

Qurghonteppa International Airport

Qurghonteppa, Tajikistan

latitude: 37-51-44N, longitude: 068-51-46E, elevation: 449 m

Current weather observation

The report was made 39 minutes ago, at 13:30 UTC
Wind 6 kt from the South/Southeast
Temperature 35°C
Humidity 34%
Pressure 1004 hPa
Visibility 10 km or more
Few clouds at a height of 16000 ft

METAR: UTDT 161330Z 16003MPS 9999 FEW160 33/15 Q1004 35////// RMK QFE714/0952

Time: 19:09 (14:09 UTC)

Forecast

The report was made 2 hours and 9 minutes ago, at 12:00 UTC
Forecast valid from 16 at 13 UTC to 16 at 22 UTC
Wind 4 kt from variable directions
Visibility: 6000 m
Temporary
from 16 at 13 UTC to 16 at 16 UTC
Wind 10 kt from the South/Southwest

TAF: UTDT 161200Z 1613/1622 VRB02MPS 6000 NSC TEMPO 1613/1616 21005MPS

Weather observations and forecasts of more than 4000 airports (METAR and TAF reports).

The available stations are represented by yellow and red dots on the map.

Hover mouse over dot to see the name of the station.

Then click to see weather observations and forecasts.

To change the map : click on the green buttons with a black cross to zoom in, on the green button with a dash to zoom out, or on the green arrows for adjacent maps.


METAR-TAF: